createdAt,value
2022-12-23T00:12:16.493Z,0
2022-12-23T00:22:55.140Z,0
2022-12-23T00:28:14.200Z,0
2022-12-23T00:38:52.202Z,0
2022-12-23T00:54:50.089Z,0
2022-12-23T01:16:08.320Z,0
2022-12-23T01:21:25.722Z,0
2022-12-23T01:32:05.182Z,0
2022-12-23T01:48:02.542Z,0
2022-12-23T01:58:41.370Z,0
2022-12-23T02:04:00.916Z,0
2022-12-23T02:14:39.520Z,0
2022-12-23T02:30:37.684Z,0
2022-12-23T02:41:15.239Z,0
2022-12-23T02:46:34.666Z,0
2022-12-23T02:57:12.795Z,0
2022-12-23T03:13:10.903Z,0
2022-12-23T03:23:55.166Z,0
2022-12-23T03:29:09.014Z,0
2022-12-23T03:39:47.161Z,0
2022-12-23T03:55:44.805Z,0
2022-12-23T04:11:42.003Z,0
2022-12-23T04:22:20.293Z,0
2022-12-23T04:27:40.737Z,0
2022-12-23T04:32:59.090Z,0
2022-12-23T04:38:18.465Z,0
2022-12-23T04:43:37.535Z,0
2022-12-23T04:54:16.239Z,0
2022-12-23T05:10:13.595Z,0
2022-12-23T05:20:52.504Z,0
2022-12-23T05:26:12.293Z,0
2022-12-23T05:31:31.500Z,0
2022-12-23T05:36:50.188Z,0
2022-12-23T05:47:28.758Z,0
2022-12-23T05:52:47.791Z,651.66
2022-12-23T06:03:27.168Z,651.66
2022-12-23T06:14:06.177Z,651.66
2022-12-23T06:19:25.335Z,0
2022-12-23T06:35:23.390Z,651.66
2022-12-23T06:46:02.037Z,607.26
2022-12-23T06:51:21.722Z,0
2022-12-23T06:56:39.997Z,552.51
2022-12-23T07:01:59.524Z,599.86
2022-12-23T07:17:57.547Z,21
2022-12-23T07:33:55.968Z,34
2022-12-23T07:44:34.673Z,47.19
2022-12-23T07:55:13.800Z,58.44
2022-12-23T08:05:51.816Z,493.31
2022-12-23T08:11:11.280Z,578.42
2022-12-23T08:21:49.776Z,0
2022-12-23T08:32:27.647Z,393.41
2022-12-23T08:37:46.389Z,467.61
2022-12-23T08:53:44.183Z,492.56
2022-12-23T09:04:23.038Z,625.76
2022-12-23T09:09:41.912Z,0
2022-12-23T09:20:21.310Z,485.91
2022-12-23T09:25:40.520Z,557.41
2022-12-23T09:36:19.351Z,556.41
2022-12-23T09:46:58.616Z,458.26
2022-12-23T09:52:17.684Z,473.06
2022-12-23T10:02:55.886Z,292.76
2022-12-23T10:18:53.617Z,518.47
2022-12-23T10:24:47.268Z,447.16
2022-12-23T10:35:24.645Z,554.46
2022-12-23T10:40:43.494Z,604.31
2022-12-23T10:51:21.909Z,651.66
2022-12-23T11:07:43.233Z,617.36
2022-12-23T11:17:56.781Z,511.06
2022-12-23T11:28:35.556Z,525.86
2022-12-23T11:33:55.172Z,471.11
2022-12-23T11:39:14.555Z,551.76
2022-12-23T11:49:53.117Z,83.5
2022-12-23T12:00:32.090Z,80.64
2022-12-23T12:05:51.037Z,66.55
2022-12-23T12:16:29.722Z,46.4
2022-12-23T12:21:49.283Z,69.5
2022-12-23T12:32:27.620Z,75.64
2022-12-23T12:43:06.201Z,64.89
2022-12-23T12:48:25.945Z,67.19
2022-12-23T12:59:03.897Z,84.3
2022-12-23T13:04:23.442Z,72.55
2022-12-23T13:15:02.293Z,323.11
2022-12-23T13:20:21.708Z,380.57
2022-12-23T13:31:00.625Z,452.61
2022-12-23T13:46:58.582Z,604.31
2022-12-23T13:57:36.939Z,615.41
2022-12-23T14:02:56.780Z,633.91
2022-12-23T14:13:35.200Z,443.46
2022-12-23T14:29:33.256Z,39
2022-12-23T14:40:12.076Z,43.25
2022-12-23T14:50:50.292Z,36.84
2022-12-23T15:06:47.827Z,23
2022-12-23T15:17:26.557Z,11
2022-12-23T15:22:45.430Z,8
2022-12-23T15:34:00.466Z,0
2022-12-23T15:49:21.934Z,0
2022-12-23T16:00:01.041Z,0
2022-12-23T16:05:20.016Z,0
2022-12-23T16:15:58.592Z,0
2022-12-23T16:21:17.481Z,0
2022-12-23T16:32:06.900Z,0
2022-12-23T16:47:54.851Z,0
2022-12-23T16:58:32.299Z,0
2022-12-23T17:03:51.807Z,0
2022-12-23T17:14:30.177Z,0
2022-12-23T17:30:28.688Z,0
2022-12-23T17:41:06.910Z,0
2022-12-23T17:46:25.965Z,0
2022-12-23T17:57:03.793Z,651.66
2022-12-23T18:13:01.035Z,0
2022-12-23T18:28:58.471Z,0
2022-12-23T18:39:36.548Z,0
2022-12-23T18:55:34.169Z,0
2022-12-23T19:06:12.414Z,0
2022-12-23T19:11:32.059Z,0
2022-12-23T19:22:11.113Z,0
2022-12-23T19:27:30.113Z,0
2022-12-23T19:38:08.604Z,0
2022-12-23T19:48:47.184Z,0
2022-12-23T19:54:06.438Z,0
2022-12-23T20:04:45.264Z,0
2022-12-23T20:10:04.905Z,0
2022-12-23T20:20:42.990Z,0
2022-12-23T20:26:01.898Z,0
2022-12-23T20:36:40.642Z,0
2022-12-23T20:47:19.150Z,0
2022-12-23T20:52:37.974Z,0
2022-12-23T21:03:16.428Z,0
2022-12-23T21:19:14.430Z,0
2022-12-23T21:29:53.871Z,0
2022-12-23T21:40:31.510Z,0
2022-12-23T21:56:28.487Z,651.66
2022-12-23T22:07:07.095Z,651.66
2022-12-23T22:12:26.352Z,651.66
2022-12-23T22:17:45.958Z,0
2022-12-23T22:23:05.145Z,651.66
2022-12-23T22:28:25.536Z,651.66
2022-12-23T22:39:02.741Z,0
2022-12-23T22:55:00.003Z,0
2022-12-23T23:05:37.764Z,0
2022-12-23T23:10:56.511Z,0
2022-12-23T23:21:35.709Z,0
2022-12-23T23:26:55.002Z,0
2022-12-23T23:37:32.994Z,0
2022-12-23T23:53:31.737Z,0
